Time;durP1;ratioP1;P1;durP2;ratioP2;P2;SDS_P1;SDS_P2;PMS_P1;PMS_P2;Temp;Humidity;BMP_temperature;BMP_pressure;BME280_temperature;BME280_humidity;BME280_pressure;Samples;Min_cycle;Max_cycle;Signal;HPM_P1;HPM_P2
2021/09/08 00:00:26;;;;;;;27.70;15.38;;;;;;;;;;5044332;28;20414;-58
2021/09/08 00:02:53;;;;;;;31.88;16.00;;;;;;;;;;5048353;28;20029;-59
2021/09/08 00:05:18;;;;;;;27.23;15.05;;;;;;;;;;5049407;28;20021;-58
2021/09/08 00:07:43;;;;;;;32.33;15.30;;;;;;;;;;5045256;28;20021;-59
2021/09/08 00:10:10;;;;;;;30.35;15.70;;;;;;;;;;5045479;28;20040;-59
2021/09/08 00:12:37;;;;;;;28.98;15.82;;;;;;;;;;5046916;28;20113;-58
2021/09/08 00:15:04;;;;;;;29.67;16.00;;;;;;;;;;5046385;28;20037;-59
2021/09/08 00:17:29;;;;;;;29.95;16.10;;;;;;;;;;5048084;28;20036;-60
2021/09/08 00:19:55;;;;;;;30.30;15.85;;;;;;;;;;5044037;28;20400;-60
2021/09/08 00:22:20;;;;;;;27.30;15.32;;;;;;;;;;5047093;28;20036;-60
2021/09/08 00:24:46;;;;;;;30.35;15.55;;;;;;;;;;5049987;28;20454;-60
2021/09/08 00:27:11;;;;;;;30.55;15.48;;;;;;;;;;5048862;28;20544;-60
2021/09/08 00:29:36;;;;;;;29.25;15.45;;;;;;;;;;5047232;28;20780;-59
2021/09/08 00:32:03;;;;;;;30.63;15.57;;;;;;;;;;5046242;28;20658;-59
2021/09/08 00:34:28;;;;;;;31.00;16.02;;;;;;;;;;5049225;28;20033;-59
2021/09/08 00:36:53;;;;;;;29.10;15.30;;;;;;;;;;5049643;28;20530;-59
2021/09/08 00:39:19;;;;;;;33.72;16.73;;;;;;;;;;5048642;28;20029;-58
2021/09/08 00:41:45;;;;;;;33.17;15.65;;;;;;;;;;5051969;28;20410;-58
2021/09/08 00:44:12;;;;;;;28.83;15.45;;;;;;;;;;5051772;28;20373;-60
2021/09/08 00:46:42;;;;;;;29.65;14.90;;;;;;;;;;5049619;28;20029;-59
2021/09/08 00:49:09;;;;;;;27.02;14.43;;;;;;;;;;5048553;28;20062;-60
2021/09/08 00:51:36;;;;;;;29.73;15.35;;;;;;;;;;5049047;28;20033;-58
2021/09/08 00:54:04;;;;;;;29.88;15.25;;;;;;;;;;5048602;28;20113;-60
2021/09/08 00:56:30;;;;;;;29.48;15.23;;;;;;;;;;5052697;28;20036;-60
2021/09/08 00:58:56;;;;;;;27.27;14.63;;;;;;;;;;5049975;28;22629;-60
2021/09/08 01:01:21;;;;;;;31.75;15.45;;;;;;;;;;5050455;28;20036;-60
2021/09/08 01:03:47;;;;;;;29.48;14.77;;;;;;;;;;5050275;28;20120;-60
2021/09/08 01:06:14;;;;;;;29.20;15.15;;;;;;;;;;5054061;28;20279;-60
2021/09/08 01:08:39;;;;;;;30.98;15.10;;;;;;;;;;5047690;28;20032;-60
2021/09/08 01:11:05;;;;;;;28.65;15.60;;;;;;;;;;5049987;28;20736;-60
2021/09/08 01:13:32;;;;;;;31.45;14.95;;;;;;;;;;5049391;28;20534;-60
2021/09/08 01:16:02;;;;;;;25.13;13.82;;;;;;;;;;5049853;28;20039;-60
2021/09/08 01:18:28;;;;;;;30.67;15.27;;;;;;;;;;5047905;28;20112;-60
2021/09/08 01:20:54;;;;;;;29.15;14.52;;;;;;;;;;5049682;28;20032;-60
2021/09/08 01:23:19;;;;;;;28.17;13.93;;;;;;;;;;5049376;28;20028;-60
2021/09/08 01:25:45;;;;;;;31.58;15.38;;;;;;;;;;5049346;28;20086;-60
2021/09/08 01:28:11;;;;;;;28.90;15.27;;;;;;;;;;5051603;28;20074;-60
2021/09/08 01:30:36;;;;;;;28.48;15.02;;;;;;;;;;5047345;28;20033;-60
2021/09/08 01:33:02;;;;;;;30.20;14.98;;;;;;;;;;5049530;28;20380;-60
2021/09/08 01:35:27;;;;;;;28.38;15.43;;;;;;;;;;5049370;28;20035;-60
2021/09/08 01:37:53;;;;;;;34.05;15.73;;;;;;;;;;5048631;28;20247;-60
2021/09/08 01:40:19;;;;;;;28.95;15.50;;;;;;;;;;5051177;28;20029;-60
2021/09/08 01:42:46;;;;;;;29.73;15.05;;;;;;;;;;5051599;28;20046;-60
2021/09/08 01:45:16;;;;;;;32.63;15.88;;;;;;;;;;5050410;28;20031;-59
2021/09/08 01:47:42;;;;;;;28.75;14.80;;;;;;;;;;5048403;28;20029;-61
2021/09/08 01:50:08;;;;;;;32.08;14.73;;;;;;;;;;5047932;28;20021;-60
2021/09/08 01:52:35;;;;;;;32.05;15.30;;;;;;;;;;5048224;28;20484;-60
2021/09/08 01:55:00;;;;;;;27.60;13.85;;;;;;;;;;5050436;28;20103;-60
2021/09/08 01:57:26;;;;;;;30.08;15.32;;;;;;;;;;5050503;28;20120;-60
2021/09/08 01:59:51;;;;;;;30.73;15.18;;;;;;;;;;5047927;28;20059;-60
2021/09/08 02:02:16;;;;;;;31.92;15.68;;;;;;;;;;5048445;28;20059;-60
2021/09/08 02:04:42;;;;;;;31.65;14.93;;;;;;;;;;5049334;28;20032;-60
2021/09/08 02:07:07;;;;;;;34.55;16.05;;;;;;;;;;5053497;28;20055;-60
2021/09/08 02:09:33;;;;;;;28.48;15.15;;;;;;;;;;5049840;28;20055;-60
2021/09/08 02:11:58;;;;;;;33.63;15.98;;;;;;;;;;5048949;28;20116;-60
2021/09/08 02:14:24;;;;;;;31.65;15.52;;;;;;;;;;5049374;28;20025;-60
2021/09/08 02:16:49;;;;;;;29.98;14.55;;;;;;;;;;5046173;28;20025;-60
2021/09/08 02:19:15;;;;;;;28.98;14.43;;;;;;;;;;5047063;28;20502;-60
2021/09/08 02:21:40;;;;;;;33.28;14.80;;;;;;;;;;5049909;28;20028;-60
2021/09/08 02:24:05;;;;;;;28.80;14.18;;;;;;;;;;5063232;28;20033;-60
2021/09/08 02:26:31;;;;;;;31.38;15.02;;;;;;;;;;5046002;28;20021;-60
2021/09/08 02:28:56;;;;;;;30.95;15.10;;;;;;;;;;5054488;28;20025;-60
2021/09/08 02:31:22;;;;;;;31.55;15.32;;;;;;;;;;5051530;28;20120;-60
2021/09/08 02:33:47;;;;;;;32.92;15.65;;;;;;;;;;5047828;28;20052;-60
2021/09/08 02:36:13;;;;;;;30.27;15.02;;;;;;;;;;5047355;28;20045;-60
2021/09/08 02:38:38;;;;;;;28.20;14.48;;;;;;;;;;5050615;28;20039;-60
2021/09/08 02:41:07;;;;;;;30.50;14.48;;;;;;;;;;5050171;28;20036;-60
2021/09/08 02:43:36;;;;;;;29.35;14.45;;;;;;;;;;5048349;28;20056;-60
2021/09/08 02:46:03;;;;;;;27.15;13.40;;;;;;;;;;5047465;28;20112;-60
2021/09/08 02:48:33;;;;;;;32.58;15.02;;;;;;;;;;5048038;28;20035;-60
2021/09/08 02:50:59;;;;;;;;;;;;;;;;;;5043175;28;20027;-60
2021/09/08 02:53:24;;;;;;;31.63;14.40;;;;;;;;;;5048170;28;19912;-60
2021/09/08 02:55:50;;;;;;;28.92;14.80;;;;;;;;;;5046531;28;20021;-60
2021/09/08 02:58:15;;;;;;;30.30;14.27;;;;;;;;;;5045506;28;20144;-59
2021/09/08 03:00:41;;;;;;;30.20;13.95;;;;;;;;;;5045252;28;20091;-60
2021/09/08 03:03:06;;;;;;;28.25;13.80;;;;;;;;;;5049772;28;20033;-59
2021/09/08 03:05:32;;;;;;;25.55;13.15;;;;;;;;;;5047352;28;20040;-60
2021/09/08 03:07:57;;;;;;;28.80;13.73;;;;;;;;;;5060565;28;20082;-60
2021/09/08 03:10:23;;;;;;;30.10;15.10;;;;;;;;;;5051508;28;20511;-59
2021/09/08 03:12:48;;;;;;;31.02;14.85;;;;;;;;;;5044870;28;20025;-59
2021/09/08 03:15:14;;;;;;;29.73;13.90;;;;;;;;;;5051129;28;20139;-59
2021/09/08 03:17:39;;;;;;;26.00;12.80;;;;;;;;;;5049495;28;20125;-59
2021/09/08 03:20:05;;;;;;;28.23;14.70;;;;;;;;;;5046711;28;20032;-59
2021/09/08 03:22:32;;;;;;;31.45;15.05;;;;;;;;;;5045532;28;20028;-59
2021/09/08 03:24:57;;;;;;;25.90;12.75;;;;;;;;;;5046039;28;20507;-59
2021/09/08 03:27:23;;;;;;;28.33;14.27;;;;;;;;;;5053385;28;20048;-59
2021/09/08 03:29:48;;;;;;;27.98;14.68;;;;;;;;;;5045711;28;20031;-59
2021/09/08 03:32:14;;;;;;;26.58;13.55;;;;;;;;;;5046479;28;20017;-59
2021/09/08 03:34:39;;;;;;;28.17;13.80;;;;;;;;;;5045574;28;20400;-59
2021/09/08 03:37:04;;;;;;;29.02;14.45;;;;;;;;;;5047709;28;20032;-59
2021/09/08 03:39:30;;;;;;;36.28;16.42;;;;;;;;;;5049179;28;20064;-59
2021/09/08 03:41:55;;;;;;;30.73;15.85;;;;;;;;;;5048279;28;20027;-60
2021/09/08 03:44:21;;;;;;;27.40;14.80;;;;;;;;;;5047048;28;20433;-59
2021/09/08 03:46:46;;;;;;;28.55;15.30;;;;;;;;;;5049867;28;21419;-59
2021/09/08 03:49:12;;;;;;;30.88;15.20;;;;;;;;;;5045803;28;20025;-59
2021/09/08 03:51:37;;;;;;;28.77;15.32;;;;;;;;;;5046715;28;20032;-59
2021/09/08 03:54:02;;;;;;;28.42;15.68;;;;;;;;;;5061306;28;20476;-59
2021/09/08 03:56:28;;;;;;;33.50;15.90;;;;;;;;;;5047060;28;20029;-59
2021/09/08 03:58:53;;;;;;;28.17;14.48;;;;;;;;;;5045624;28;20036;-59
2021/09/08 04:01:19;;;;;;;30.88;14.95;;;;;;;;;;5048299;28;20457;-59
2021/09/08 04:03:48;;;;;;;28.90;15.50;;;;;;;;;;5049125;28;20071;-59
2021/09/08 04:06:14;;;;;;;28.45;15.27;;;;;;;;;;5045733;28;20040;-59
2021/09/08 04:08:40;;;;;;;34.00;15.65;;;;;;;;;;5051461;28;20021;-59
2021/09/08 04:11:05;;;;;;;34.67;15.50;;;;;;;;;;5052086;28;20710;-59
2021/09/08 04:13:31;;;;;;;36.15;16.52;;;;;;;;;;5053589;28;20040;-59
2021/09/08 04:15:57;;;;;;;32.38;16.40;;;;;;;;;;5053038;28;20086;-59
2021/09/08 04:18:22;;;;;;;37.85;18.05;;;;;;;;;;5049700;28;20422;-59
2021/09/08 04:20:48;;;;;;;32.00;16.63;;;;;;;;;;5050682;28;20024;-60
2021/09/08 04:23:13;;;;;;;33.67;16.23;;;;;;;;;;5054544;28;20024;-60
2021/09/08 04:25:40;;;;;;;33.28;16.58;;;;;;;;;;5052055;28;20501;-60
2021/09/08 04:28:05;;;;;;;31.88;15.55;;;;;;;;;;5054353;28;20025;-59
2021/09/08 04:30:31;;;;;;;33.65;15.18;;;;;;;;;;5052261;28;20428;-59
2021/09/08 04:32:56;;;;;;;31.20;15.98;;;;;;;;;;5054400;28;20440;-60
2021/09/08 04:35:21;;;;;;;41.83;18.65;;;;;;;;;;5050259;28;20029;-60
2021/09/08 04:37:47;;;;;;;36.00;16.80;;;;;;;;;;5051842;28;20032;-59
2021/09/08 04:40:13;;;;;;;36.35;17.67;;;;;;;;;;5053068;28;20032;-59
2021/09/08 04:42:38;;;;;;;35.35;17.10;;;;;;;;;;5049883;28;20553;-60
2021/09/08 04:45:04;;;;;;;34.50;16.95;;;;;;;;;;5051240;28;20397;-59
2021/09/08 04:47:30;;;;;;;40.63;18.25;;;;;;;;;;5065227;28;20399;-59
2021/09/08 04:49:55;;;;;;;35.10;17.52;;;;;;;;;;5048567;28;20036;-60
2021/09/08 04:52:21;;;;;;;39.42;18.27;;;;;;;;;;5050554;28;20028;-59
2021/09/08 04:54:46;;;;;;;33.38;17.45;;;;;;;;;;5050254;28;20032;-59
2021/09/08 04:57:12;;;;;;;33.85;17.63;;;;;;;;;;5051432;28;20029;-59
2021/09/08 04:59:37;;;;;;;36.42;17.90;;;;;;;;;;5047530;28;20032;-60
2021/09/08 05:02:03;;;;;;;42.65;19.85;;;;;;;;;;5050069;28;20111;-60
2021/09/08 05:04:28;;;;;;;42.78;20.05;;;;;;;;;;5052773;28;20025;-59
2021/09/08 05:06:53;;;;;;;41.15;20.08;;;;;;;;;;5050977;28;20039;-59
2021/09/08 05:09:19;;;;;;;41.60;20.00;;;;;;;;;;5050589;28;20029;-58
2021/09/08 05:11:44;;;;;;;43.67;20.88;;;;;;;;;;5048546;28;20115;-58
2021/09/08 05:14:10;;;;;;;43.03;19.52;;;;;;;;;;5051224;28;20029;-59
2021/09/08 05:16:35;;;;;;;39.78;19.08;;;;;;;;;;5051462;28;20143;-58
2021/09/08 05:19:01;;;;;;;39.95;19.45;;;;;;;;;;5048220;28;20044;-58
2021/09/08 05:21:26;;;;;;;41.65;20.20;;;;;;;;;;5048000;28;20047;-58
2021/09/08 05:23:52;;;;;;;36.88;18.70;;;;;;;;;;5051552;28;20044;-58
2021/09/08 05:26:17;;;;;;;39.33;19.90;;;;;;;;;;5050213;28;20040;-57
2021/09/08 05:28:42;;;;;;;41.42;19.98;;;;;;;;;;5054811;28;20037;-58
2021/09/08 05:31:08;;;;;;;48.45;22.65;;;;;;;;;;5054419;28;20063;-58
2021/09/08 05:33:33;;;;;;;42.30;20.02;;;;;;;;;;5050035;28;20472;-58
2021/09/08 05:35:59;;;;;;;37.35;18.23;;;;;;;;;;5049235;28;20479;-58
2021/09/08 05:38:25;;;;;;;37.38;17.35;;;;;;;;;;5050343;28;20028;-58
2021/09/08 05:40:50;;;;;;;30.17;15.45;;;;;;;;;;5046155;28;20033;-58
2021/09/08 05:43:15;;;;;;;32.28;15.90;;;;;;;;;;5049261;28;20128;-57
2021/09/08 05:45:41;;;;;;;34.05;16.65;;;;;;;;;;5048580;28;20035;-57
2021/09/08 05:48:06;;;;;;;31.95;16.17;;;;;;;;;;5046435;28;20098;-57
2021/09/08 05:50:32;;;;;;;31.75;15.10;;;;;;;;;;5049174;28;20065;-57
2021/09/08 05:52:57;;;;;;;32.20;14.73;;;;;;;;;;5049849;28;20020;-58
2021/09/08 05:55:23;;;;;;;28.65;13.77;;;;;;;;;;5050343;28;20032;-58
2021/09/08 05:57:48;;;;;;;33.15;16.02;;;;;;;;;;5060620;28;20495;-57
2021/09/08 06:00:14;;;;;;;37.83;17.10;;;;;;;;;;5047580;28;20028;-58
2021/09/08 06:02:39;;;;;;;33.45;16.60;;;;;;;;;;5049033;28;20178;-58
2021/09/08 06:05:06;;;;;;;29.77;15.88;;;;;;;;;;5049699;28;20071;-58
2021/09/08 06:07:31;;;;;;;34.00;15.98;;;;;;;;;;5050992;28;20047;-58
2021/09/08 06:09:56;;;;;;;34.60;16.10;;;;;;;;;;5047252;28;20029;-57
2021/09/08 06:12:22;;;;;;;31.15;16.05;;;;;;;;;;5042566;28;20053;-58
2021/09/08 06:14:47;;;;;;;34.47;16.00;;;;;;;;;;5047869;28;20025;-57
2021/09/08 06:17:13;;;;;;;36.53;16.67;;;;;;;;;;5051352;28;20017;-57
2021/09/08 06:19:38;;;;;;;36.38;17.05;;;;;;;;;;5049719;28;20492;-57
2021/09/08 06:22:04;;;;;;;34.90;17.08;;;;;;;;;;5051306;28;21126;-58
2021/09/08 06:24:29;;;;;;;34.10;17.50;;;;;;;;;;5050246;28;20032;-59
2021/09/08 06:26:55;;;;;;;40.15;18.40;;;;;;;;;;5042109;28;20345;-57
2021/09/08 06:29:20;;;;;;;36.92;18.13;;;;;;;;;;5045696;28;20036;-57
2021/09/08 06:31:46;;;;;;;40.20;18.90;;;;;;;;;;5049401;28;20035;-59
2021/09/08 06:34:12;;;;;;;39.10;18.13;;;;;;;;;;5050255;28;20170;-59
2021/09/08 06:36:37;;;;;;;37.90;17.73;;;;;;;;;;5052467;28;20025;-59
2021/09/08 06:39:03;;;;;;;39.28;17.77;;;;;;;;;;5046211;28;20580;-58
2021/09/08 06:41:28;;;;;;;38.92;19.35;;;;;;;;;;5047629;28;20047;-58
2021/09/08 06:43:54;;;;;;;40.33;19.92;;;;;;;;;;5047272;28;20156;-59
2021/09/08 06:46:19;;;;;;;43.67;20.58;;;;;;;;;;5046080;28;20028;-58
2021/09/08 06:48:44;;;;;;;45.45;20.88;;;;;;;;;;5047886;28;20041;-58
2021/09/08 06:51:11;;;;;;;49.65;21.85;;;;;;;;;;5062847;28;20048;-57
2021/09/08 06:53:37;;;;;;;41.95;20.48;;;;;;;;;;5065784;28;20025;-58
2021/09/08 06:56:03;;;;;;;46.47;21.52;;;;;;;;;;5063565;28;20039;-58
2021/09/08 06:58:28;;;;;;;47.90;22.10;;;;;;;;;;5064528;28;20029;-59
2021/09/08 07:00:54;;;;;;;47.45;22.08;;;;;;;;;;5063653;28;20033;-57
2021/09/08 07:03:19;;;;;;;41.80;21.60;;;;;;;;;;5050411;28;20027;-57
2021/09/08 07:05:45;;;;;;;46.95;20.75;;;;;;;;;;5049492;28;20029;-57
2021/09/08 07:08:14;;;;;;;44.78;21.13;;;;;;;;;;5052199;28;20666;-57
2021/09/08 07:10:40;;;;;;;43.92;21.08;;;;;;;;;;5046815;28;20510;-57
2021/09/08 07:13:05;;;;;;;43.50;21.95;;;;;;;;;;5047583;28;20028;-58
2021/09/08 07:15:31;;;;;;;46.15;21.42;;;;;;;;;;5048313;28;20071;-57
2021/09/08 07:17:56;;;;;;;43.60;21.13;;;;;;;;;;5047476;28;20028;-58
2021/09/08 07:20:23;;;;;;;42.00;20.95;;;;;;;;;;5052775;28;20063;-58
2021/09/08 07:22:48;;;;;;;42.72;19.70;;;;;;;;;;5048554;28;20021;-57
2021/09/08 07:25:14;;;;;;;41.97;20.17;;;;;;;;;;5047304;28;20259;-57
2021/09/08 07:27:39;;;;;;;41.45;20.65;;;;;;;;;;5050993;28;20175;-57
2021/09/08 07:30:05;;;;;;;42.42;20.55;;;;;;;;;;5050986;28;20017;-59
2021/09/08 07:32:30;;;;;;;36.97;19.70;;;;;;;;;;5044627;28;20389;-58
2021/09/08 07:34:58;;;;;;;36.75;18.92;;;;;;;;;;5048262;28;20051;-59
2021/09/08 07:37:24;;;;;;;42.50;19.58;;;;;;;;;;5047723;28;20032;-58
2021/09/08 07:39:50;;;;;;;39.05;20.20;;;;;;;;;;5045843;28;20424;-58
2021/09/08 07:42:16;;;;;;;38.20;19.50;;;;;;;;;;5046126;28;20188;-58
2021/09/08 07:44:43;;;;;;;36.67;19.33;;;;;;;;;;5043310;28;20447;-59
2021/09/08 07:47:09;;;;;;;39.35;19.67;;;;;;;;;;5045245;28;20112;-59
2021/09/08 07:49:34;;;;;;;37.25;19.25;;;;;;;;;;5044628;28;20071;-58
2021/09/08 07:52:00;;;;;;;42.08;19.35;;;;;;;;;;5046594;28;20037;-58
2021/09/08 07:54:26;;;;;;;37.65;17.92;;;;;;;;;;5047818;28;20048;-59
2021/09/08 07:56:52;;;;;;;38.25;19.33;;;;;;;;;;5047398;28;20028;-59
2021/09/08 07:59:17;;;;;;;37.88;19.10;;;;;;;;;;5045832;28;20032;-58
2021/09/08 08:01:43;;;;;;;43.42;19.58;;;;;;;;;;5045135;28;20025;-58
2021/09/08 08:04:10;;;;;;;38.65;19.58;;;;;;;;;;5046346;28;20409;-58
2021/09/08 08:06:37;;;;;;;37.20;19.10;;;;;;;;;;5054612;28;20091;-58
2021/09/08 08:09:03;;;;;;;41.58;20.15;;;;;;;;;;5049344;28;20032;-58
2021/09/08 08:11:29;;;;;;;36.72;19.02;;;;;;;;;;5052383;28;20024;-58
2021/09/08 08:13:54;;;;;;;38.03;19.63;;;;;;;;;;5045084;28;20019;-59
2021/09/08 08:16:19;;;;;;;38.35;20.13;;;;;;;;;;5053443;28;20036;-59
2021/09/08 08:18:45;;;;;;;40.53;19.90;;;;;;;;;;5044389;28;20078;-58
2021/09/08 08:21:10;;;;;;;36.08;18.90;;;;;;;;;;5045177;28;20482;-58
2021/09/08 08:23:36;;;;;;;38.28;18.13;;;;;;;;;;5040716;28;20056;-58
2021/09/08 08:26:02;;;;;;;35.30;18.08;;;;;;;;;;5047132;28;20043;-59
2021/09/08 08:28:30;;;;;;;33.17;17.25;;;;;;;;;;5049094;28;20024;-59
2021/09/08 08:30:55;;;;;;;33.88;18.70;;;;;;;;;;5047500;28;20355;-59
2021/09/08 08:33:21;;;;;;;32.20;16.88;;;;;;;;;;5046362;28;20017;-58
2021/09/08 08:35:46;;;;;;;36.45;19.10;;;;;;;;;;5049075;28;20614;-58
2021/09/08 08:38:12;;;;;;;33.42;17.67;;;;;;;;;;5046746;28;20024;-58
2021/09/08 08:40:37;;;;;;;31.33;17.50;;;;;;;;;;5046192;28;20033;-58
2021/09/08 08:43:03;;;;;;;31.75;17.10;;;;;;;;;;5044819;28;20061;-58
2021/09/08 08:45:30;;;;;;;35.25;16.80;;;;;;;;;;5043965;28;20029;-58
2021/09/08 08:48:00;;;;;;;34.30;16.55;;;;;;;;;;5042244;28;20487;-58
2021/09/08 08:50:26;;;;;;;29.88;17.25;;;;;;;;;;5047102;28;20056;-59
2021/09/08 08:52:56;;;;;;;31.42;16.13;;;;;;;;;;5034293;28;20038;-58
2021/09/08 08:55:21;;;;;;;;;;;;;;;;;;5049601;28;20035;-58
2021/09/08 08:57:50;;;;;;;29.70;15.63;;;;;;;;;;5045194;28;19912;-59
2021/09/08 09:00:18;;;;;;;31.53;16.50;;;;;;;;;;5047933;28;20029;-59
2021/09/08 09:02:48;;;;;;;32.38;16.63;;;;;;;;;;5051552;28;20299;-59
2021/09/08 09:05:36;;;;;;;30.50;16.08;;;;;;;;;;5049380;28;20032;-59
2021/09/08 09:08:03;;;;;;;30.33;15.88;;;;;;;;;;5048351;28;20021;-59
2021/09/08 09:10:29;;;;;;;29.05;15.45;;;;;;;;;;5049517;28;20495;-59
2021/09/08 09:12:55;;;;;;;27.13;16.23;;;;;;;;;;5052027;28;20017;-58
2021/09/08 09:15:22;;;;;;;27.27;15.48;;;;;;;;;;5052926;28;20040;-58
2021/09/08 09:17:48;;;;;;;32.25;16.67;;;;;;;;;;5049301;28;20056;-59
2021/09/08 09:20:32;;;;;;;32.03;16.30;;;;;;;;;;5044441;28;20044;-59
2021/09/08 09:23:03;;;;;;;29.60;15.50;;;;;;;;;;5041911;28;20377;-60
2021/09/08 09:25:36;;;;;;;30.20;16.25;;;;;;;;;;5044145;28;20116;-58
2021/09/08 09:28:04;;;;;;;28.23;15.57;;;;;;;;;;5048326;28;20033;-58
2021/09/08 09:30:32;;;;;;;28.73;16.27;;;;;;;;;;5047941;28;20037;-59
2021/09/08 09:32:59;;;;;;;27.77;15.73;;;;;;;;;;5052538;28;20029;-59
2021/09/08 09:35:30;;;;;;;28.00;16.58;;;;;;;;;;5051158;28;20029;-59
2021/09/08 09:38:01;;;;;;;26.35;15.38;;;;;;;;;;5048482;28;20021;-59
2021/09/08 09:40:31;;;;;;;30.02;16.23;;;;;;;;;;5048727;28;20029;-58
2021/09/08 09:43:02;;;;;;;27.48;16.33;;;;;;;;;;5052058;28;20029;-59
2021/09/08 09:45:32;;;;;;;23.73;14.98;;;;;;;;;;5031377;28;20041;-59
2021/09/08 09:48:00;;;;;;;28.17;16.52;;;;;;;;;;5049343;28;20519;-59
2021/09/08 09:50:26;;;;;;;26.85;15.57;;;;;;;;;;5050813;28;20484;-59
2021/09/08 09:52:53;;;;;;;28.58;15.65;;;;;;;;;;5048530;28;20024;-59
2021/09/08 09:55:19;;;;;;;27.92;16.27;;;;;;;;;;5049660;28;20037;-58
2021/09/08 09:57:46;;;;;;;25.83;14.88;;;;;;;;;;5051959;28;20510;-59
2021/09/08 10:00:16;;;;;;;30.95;16.83;;;;;;;;;;5047241;28;20690;-58
2021/09/08 10:02:43;;;;;;;35.22;18.15;;;;;;;;;;5047839;28;20039;-59
2021/09/08 10:05:09;;;;;;;32.28;19.02;;;;;;;;;;5048294;28;20029;-58
2021/09/08 10:07:36;;;;;;;26.75;16.13;;;;;;;;;;5048493;28;20035;-58
2021/09/08 10:10:07;;;;;;;28.33;14.77;;;;;;;;;;5049683;28;20525;-58
2021/09/08 10:12:37;;;;;;;26.10;14.10;;;;;;;;;;5065328;28;20111;-59
2021/09/08 10:15:04;;;;;;;20.90;13.27;;;;;;;;;;5049186;28;20662;-59
2021/09/08 10:17:39;;;;;;;24.90;13.95;;;;;;;;;;5047451;28;20041;-59
2021/09/08 10:20:06;;;;;;;23.77;14.35;;;;;;;;;;5048285;28;20491;-59
2021/09/08 10:22:36;;;;;;;23.35;14.38;;;;;;;;;;5052769;28;20484;-59
2021/09/08 10:25:13;;;;;;;24.98;14.73;;;;;;;;;;5051123;28;20466;-59
2021/09/08 10:27:40;;;;;;;22.00;14.45;;;;;;;;;;5052043;28;20141;-59
2021/09/08 10:30:08;;;;;;;22.58;14.02;;;;;;;;;;5048069;28;20940;-59
2021/09/08 10:32:35;;;;;;;26.65;13.57;;;;;;;;;;5049770;28;20120;-59
2021/09/08 10:35:11;;;;;;;21.23;13.77;;;;;;;;;;5052090;28;20086;-59
2021/09/08 10:37:37;;;;;;;21.13;13.57;;;;;;;;;;5049045;28;20037;-59
2021/09/08 10:40:08;;;;;;;28.30;14.25;;;;;;;;;;5048458;28;20390;-60
2021/09/08 10:42:56;;;;;;;20.58;13.45;;;;;;;;;;5049652;28;20033;-59
2021/09/08 10:45:25;;;;;;;19.90;13.20;;;;;;;;;;5048819;28;20106;-59
2021/09/08 10:47:52;;;;;;;21.73;13.15;;;;;;;;;;5046793;28;20392;-60
2021/09/08 10:50:38;;;;;;;22.67;13.10;;;;;;;;;;5048257;28;20031;-60
2021/09/08 10:53:15;;;;;;;21.55;13.00;;;;;;;;;;5048747;28;20422;-60
2021/09/08 10:55:45;;;;;;;21.55;12.52;;;;;;;;;;5046772;28;20020;-60
2021/09/08 10:58:10;;;;;;;19.02;12.60;;;;;;;;;;5046713;28;20044;-60
2021/09/08 11:00:41;;;;;;;20.60;12.82;;;;;;;;;;5049328;28;20423;-60
2021/09/08 11:03:27;;;;;;;21.90;13.73;;;;;;;;;;5046078;28;20032;-60
2021/09/08 11:05:55;;;;;;;23.92;12.10;;;;;;;;;;5045145;28;20037;-60
2021/09/08 11:08:32;;;;;;;20.60;13.10;;;;;;;;;;5047195;28;20268;-60
2021/09/08 11:11:20;;;;;;;26.83;13.25;;;;;;;;;;5048816;28;20275;-59
2021/09/08 11:13:54;;;;;;;20.20;12.98;;;;;;;;;;5046296;28;20108;-61
2021/09/08 11:16:25;;;;;;;20.05;13.07;;;;;;;;;;5043249;28;20055;-59
2021/09/08 11:18:57;;;;;;;19.63;13.02;;;;;;;;;;5052227;28;20028;-61
2021/09/08 11:21:28;;;;;;;24.42;14.10;;;;;;;;;;5048686;28;20422;-60
2021/09/08 11:24:13;;;;;;;23.45;12.63;;;;;;;;;;5050477;28;20064;-60
2021/09/08 11:26:40;;;;;;;22.88;12.82;;;;;;;;;;5048668;28;20353;-60
2021/09/08 11:29:11;;;;;;;19.58;12.25;;;;;;;;;;5047908;28;20050;-61
2021/09/08 11:31:42;;;;;;;18.70;12.20;;;;;;;;;;5046886;28;20025;-60
2021/09/08 11:34:20;;;;;;;18.58;12.43;;;;;;;;;;5048462;28;20024;-60
2021/09/08 11:36:46;;;;;;;20.75;12.60;;;;;;;;;;5048438;28;20063;-59
2021/09/08 11:39:16;;;;;;;17.80;12.10;;;;;;;;;;5048710;28;20113;-60
2021/09/08 11:42:04;;;;;;;23.80;12.75;;;;;;;;;;5045938;28;20036;-60
2021/09/08 11:44:33;;;;;;;23.13;12.23;;;;;;;;;;5046517;28;20033;-60
2021/09/08 11:46:59;;;;;;;17.65;11.63;;;;;;;;;;5047093;28;20536;-61
2021/09/08 11:49:25;;;;;;;16.52;10.93;;;;;;;;;;5044169;28;20115;-60
2021/09/08 11:51:50;;;;;;;14.15;11.10;;;;;;;;;;5048308;28;20035;-60
2021/09/08 11:54:21;;;;;;;13.95;10.27;;;;;;;;;;5047806;28;20028;-60
2021/09/08 11:56:55;;;;;;;17.40;10.55;;;;;;;;;;5045732;28;20103;-60
2021/09/08 11:59:30;;;;;;;14.30;10.63;;;;;;;;;;5047354;28;20025;-61
2021/09/08 12:01:57;;;;;;;16.60;10.35;;;;;;;;;;5044098;28;20070;-60
2021/09/08 12:04:24;;;;;;;13.00;9.48;;;;;;;;;;5044221;28;20351;-60
2021/09/08 12:07:00;;;;;;;13.73;9.40;;;;;;;;;;5045927;28;20467;-60
2021/09/08 12:09:27;;;;;;;15.32;9.75;;;;;;;;;;5045044;28;20029;-60
2021/09/08 12:12:07;;;;;;;15.77;10.13;;;;;;;;;;5038753;28;21084;-61
2021/09/08 12:14:32;;;;;;;13.82;8.90;;;;;;;;;;5043315;28;20029;-59
2021/09/08 12:17:07;;;;;;;14.05;8.95;;;;;;;;;;5047107;28;20552;-61
2021/09/08 12:19:38;;;;;;;14.82;9.60;;;;;;;;;;5040832;28;20028;-59
2021/09/08 12:22:15;;;;;;;19.83;10.40;;;;;;;;;;5047632;28;20041;-60
2021/09/08 12:24:48;;;;;;;16.08;10.38;;;;;;;;;;5060204;28;20056;-60
2021/09/08 12:27:22;;;;;;;15.48;9.13;;;;;;;;;;5065726;28;20107;-59
2021/09/08 12:29:48;;;;;;;11.20;7.63;;;;;;;;;;5047770;28;20031;-62
2021/09/08 12:32:13;;;;;;;10.18;6.72;;;;;;;;;;5049040;28;20512;-61
2021/09/08 12:34:57;;;;;;;10.90;6.95;;;;;;;;;;5065364;28;20548;-61
2021/09/08 12:37:23;;;;;;;11.63;6.60;;;;;;;;;;5049260;28;20068;-61
2021/09/08 12:39:53;;;;;;;10.38;6.43;;;;;;;;;;5049706;28;20024;-60
2021/09/08 12:42:23;;;;;;;11.68;7.00;;;;;;;;;;5065363;28;20241;-60
2021/09/08 12:44:51;;;;;;;10.13;6.93;;;;;;;;;;5049343;28;20035;-60
2021/09/08 12:47:19;;;;;;;11.27;7.15;;;;;;;;;;5050397;28;20276;-60
2021/09/08 12:49:46;;;;;;;10.73;6.90;;;;;;;;;;5045499;28;20099;-61
2021/09/08 12:52:18;;;;;;;9.50;6.45;;;;;;;;;;5050180;28;20467;-60
2021/09/08 12:54:44;;;;;;;10.20;6.72;;;;;;;;;;5050555;28;20037;-60
2021/09/08 12:57:11;;;;;;;12.48;7.45;;;;;;;;;;5051525;28;20079;-59
2021/09/08 12:59:38;;;;;;;10.07;6.88;;;;;;;;;;5050885;28;20024;-60
2021/09/08 13:02:05;;;;;;;10.43;6.88;;;;;;;;;;5049623;28;20483;-60
2021/09/08 13:04:32;;;;;;;11.93;7.00;;;;;;;;;;5048176;28;20131;-60
2021/09/08 13:06:58;;;;;;;9.18;6.90;;;;;;;;;;5045536;28;20036;-61
2021/09/08 13:09:23;;;;;;;9.68;6.80;;;;;;;;;;5047947;28;20078;-61
2021/09/08 13:11:49;;;;;;;10.65;6.93;;;;;;;;;;5049729;28;20499;-60
2021/09/08 13:14:15;;;;;;;10.27;6.50;;;;;;;;;;5048823;28;20031;-61
2021/09/08 13:16:41;;;;;;;10.18;7.13;;;;;;;;;;5052638;28;20114;-59
2021/09/08 13:19:08;;;;;;;11.13;6.53;;;;;;;;;;5048067;28;20112;-60
2021/09/08 13:21:35;;;;;;;10.25;7.03;;;;;;;;;;5050769;28;20115;-60
2021/09/08 13:24:01;;;;;;;13.38;6.78;;;;;;;;;;5041533;28;20087;-62
2021/09/08 13:26:27;;;;;;;8.20;6.10;;;;;;;;;;5042469;28;20028;-61
2021/09/08 13:28:52;;;;;;;8.48;5.72;;;;;;;;;;5048466;28;20112;-61
2021/09/08 13:31:18;;;;;;;8.18;5.38;;;;;;;;;;5048929;28;20415;-62
2021/09/08 13:33:43;;;;;;;9.50;6.05;;;;;;;;;;5046482;28;20511;-60
2021/09/08 13:36:09;;;;;;;11.32;5.90;;;;;;;;;;5048358;28;20029;-60
2021/09/08 13:38:36;;;;;;;10.98;7.47;;;;;;;;;;5048468;28;20506;-61
2021/09/08 13:41:02;;;;;;;13.02;8.35;;;;;;;;;;5048157;28;20041;-61
2021/09/08 13:43:28;;;;;;;14.63;9.60;;;;;;;;;;5047118;28;20021;-61
2021/09/08 13:45:53;;;;;;;13.40;9.40;;;;;;;;;;5050103;28;20452;-61
2021/09/08 13:48:20;;;;;;;13.63;9.30;;;;;;;;;;5043070;28;20025;-61
2021/09/08 13:50:46;;;;;;;13.30;8.30;;;;;;;;;;5049154;28;20025;-61
2021/09/08 13:53:11;;;;;;;15.88;9.23;;;;;;;;;;5063585;28;20051;-61
2021/09/08 13:55:37;;;;;;;15.52;9.25;;;;;;;;;;5048632;28;20033;-61
2021/09/08 13:58:05;;;;;;;12.57;9.05;;;;;;;;;;5048837;28;20029;-61
2021/09/08 14:00:31;;;;;;;15.05;8.63;;;;;;;;;;5052508;28;20028;-61
2021/09/08 14:02:56;;;;;;;13.27;9.27;;;;;;;;;;5048097;28;20459;-61
2021/09/08 14:05:21;;;;;;;13.55;8.77;;;;;;;;;;5047960;28;20170;-61
2021/09/08 14:07:47;;;;;;;14.50;8.63;;;;;;;;;;5047932;28;20028;-61
2021/09/08 14:10:12;;;;;;;13.23;8.63;;;;;;;;;;5046384;28;20108;-61
2021/09/08 14:12:38;;;;;;;15.07;8.63;;;;;;;;;;5048263;28;20458;-59
2021/09/08 14:15:04;;;;;;;14.98;9.23;;;;;;;;;;5052983;28;20029;-59
2021/09/08 14:17:30;;;;;;;16.30;9.68;;;;;;;;;;5050637;28;20037;-58
2021/09/08 14:19:56;;;;;;;19.30;11.07;;;;;;;;;;5042267;28;20543;-60